sensor_id;sensor_type;location;lat;lon;timestamp;P1;durP1;ratioP1;P2;durP2;ratioP2
58302;SDS011;44109;52.398;7.024;2024-02-15T00:01:45;33.70;;;22.42;;
58302;SDS011;44109;52.398;7.024;2024-02-15T00:04:13;29.95;;;22.42;;
58302;SDS011;44109;52.398;7.024;2024-02-15T00:06:40;29.70;;;19.58;;
58302;SDS011;44109;52.398;7.024;2024-02-15T00:09:08;19.83;;;16.15;;
58302;SDS011;44109;52.398;7.024;2024-02-15T00:11:36;30.23;;;19.60;;
58302;SDS011;44109;52.398;7.024;2024-02-15T00:14:05;31.27;;;23.00;;
58302;SDS011;44109;52.398;7.024;2024-02-15T00:16:33;27.05;;;19.20;;
58302;SDS011;44109;52.398;7.024;2024-02-15T00:19:02;22.50;;;16.70;;
58302;SDS011;44109;52.398;7.024;2024-02-15T00:21:30;27.55;;;19.20;;
58302;SDS011;44109;52.398;7.024;2024-02-15T00:23:57;22.27;;;15.68;;
58302;SDS011;44109;52.398;7.024;2024-02-15T00:26:26;18.27;;;13.45;;
58302;SDS011;44109;52.398;7.024;2024-02-15T00:28:53;20.08;;;15.05;;
58302;SDS011;44109;52.398;7.024;2024-02-15T00:31:21;22.58;;;15.60;;
58302;SDS011;44109;52.398;7.024;2024-02-15T00:33:48;26.70;;;19.23;;
58302;SDS011;44109;52.398;7.024;2024-02-15T00:36:17;21.42;;;15.00;;
58302;SDS011;44109;52.398;7.024;2024-02-15T00:38:45;23.00;;;15.73;;
58302;SDS011;44109;52.398;7.024;2024-02-15T00:41:16;19.00;;;13.38;;
58302;SDS011;44109;52.398;7.024;2024-02-15T00:43:45;22.95;;;16.08;;
58302;SDS011;44109;52.398;7.024;2024-02-15T00:46:13;25.63;;;17.60;;
58302;SDS011;44109;52.398;7.024;2024-02-15T00:48:42;25.15;;;17.10;;
58302;SDS011;44109;52.398;7.024;2024-02-15T00:51:10;25.73;;;16.38;;
58302;SDS011;44109;52.398;7.024;2024-02-15T00:53:39;25.92;;;16.45;;
58302;SDS011;44109;52.398;7.024;2024-02-15T00:56:07;25.58;;;16.05;;
58302;SDS011;44109;52.398;7.024;2024-02-15T00:58:35;28.58;;;18.67;;
58302;SDS011;44109;52.398;7.024;2024-02-15T01:01:02;23.73;;;15.93;;
58302;SDS011;44109;52.398;7.024;2024-02-15T01:03:32;17.73;;;13.55;;
58302;SDS011;44109;52.398;7.024;2024-02-15T01:06:00;24.08;;;16.35;;
58302;SDS011;44109;52.398;7.024;2024-02-15T01:08:28;21.25;;;14.15;;
58302;SDS011;44109;52.398;7.024;2024-02-15T01:10:57;22.15;;;14.43;;
58302;SDS011;44109;52.398;7.024;2024-02-15T01:13:24;26.23;;;16.55;;
58302;SDS011;44109;52.398;7.024;2024-02-15T01:15:52;19.65;;;13.55;;
58302;SDS011;44109;52.398;7.024;2024-02-15T01:18:21;16.85;;;11.90;;
58302;SDS011;44109;52.398;7.024;2024-02-15T01:20:49;20.25;;;14.57;;
58302;SDS011;44109;52.398;7.024;2024-02-15T01:23:18;27.48;;;16.33;;
58302;SDS011;44109;52.398;7.024;2024-02-15T01:25:46;22.13;;;14.45;;
58302;SDS011;44109;52.398;7.024;2024-02-15T01:28:14;28.25;;;17.77;;
58302;SDS011;44109;52.398;7.024;2024-02-15T01:30:42;30.08;;;18.45;;
58302;SDS011;44109;52.398;7.024;2024-02-15T01:33:11;19.67;;;14.02;;
58302;SDS011;44109;52.398;7.024;2024-02-15T01:35:39;29.75;;;18.00;;
58302;SDS011;44109;52.398;7.024;2024-02-15T01:38:07;22.85;;;15.32;;
58302;SDS011;44109;52.398;7.024;2024-02-15T01:40:34;25.48;;;15.35;;
58302;SDS011;44109;52.398;7.024;2024-02-15T01:43:03;18.88;;;12.68;;
58302;SDS011;44109;52.398;7.024;2024-02-15T01:45:32;22.02;;;14.80;;
58302;SDS011;44109;52.398;7.024;2024-02-15T01:48:00;22.40;;;14.35;;
58302;SDS011;44109;52.398;7.024;2024-02-15T01:50:30;20.65;;;12.93;;
58302;SDS011;44109;52.398;7.024;2024-02-15T01:53:01;19.38;;;13.38;;
58302;SDS011;44109;52.398;7.024;2024-02-15T01:55:33;30.20;;;16.63;;
58302;SDS011;44109;52.398;7.024;2024-02-15T01:58:02;31.95;;;19.55;;
58302;SDS011;44109;52.398;7.024;2024-02-15T02:00:32;22.08;;;13.52;;
58302;SDS011;44109;52.398;7.024;2024-02-15T02:03:00;25.98;;;15.63;;
58302;SDS011;44109;52.398;7.024;2024-02-15T02:05:31;30.20;;;16.75;;
58302;SDS011;44109;52.398;7.024;2024-02-15T02:07:59;17.70;;;11.52;;
58302;SDS011;44109;52.398;7.024;2024-02-15T02:10:30;22.33;;;14.23;;
58302;SDS011;44109;52.398;7.024;2024-02-15T02:12:59;20.95;;;14.05;;
58302;SDS011;44109;52.398;7.024;2024-02-15T02:15:28;26.00;;;16.90;;
58302;SDS011;44109;52.398;7.024;2024-02-15T02:17:59;29.20;;;17.75;;
58302;SDS011;44109;52.398;7.024;2024-02-15T02:20:28;27.95;;;16.90;;
58302;SDS011;44109;52.398;7.024;2024-02-15T02:22:58;25.20;;;15.55;;
58302;SDS011;44109;52.398;7.024;2024-02-15T02:25:35;26.95;;;18.75;;
58302;SDS011;44109;52.398;7.024;2024-02-15T02:28:03;32.72;;;19.17;;
58302;SDS011;44109;52.398;7.024;2024-02-15T02:30:32;32.08;;;18.63;;
58302;SDS011;44109;52.398;7.024;2024-02-15T02:33:00;29.08;;;17.80;;
58302;SDS011;44109;52.398;7.024;2024-02-15T02:35:32;29.75;;;17.50;;
58302;SDS011;44109;52.398;7.024;2024-02-15T02:38:00;35.80;;;22.00;;
58302;SDS011;44109;52.398;7.024;2024-02-15T02:40:29;47.80;;;25.73;;
58302;SDS011;44109;52.398;7.024;2024-02-15T02:42:59;27.73;;;19.00;;
58302;SDS011;44109;52.398;7.024;2024-02-15T02:45:26;29.40;;;18.27;;
58302;SDS011;44109;52.398;7.024;2024-02-15T02:47:54;24.35;;;16.30;;
58302;SDS011;44109;52.398;7.024;2024-02-15T02:50:22;24.05;;;17.55;;
58302;SDS011;44109;52.398;7.024;2024-02-15T02:52:51;39.97;;;24.48;;
58302;SDS011;44109;52.398;7.024;2024-02-15T02:55:18;44.95;;;28.13;;
58302;SDS011;44109;52.398;7.024;2024-02-15T02:57:46;37.58;;;22.40;;
58302;SDS011;44109;52.398;7.024;2024-02-15T03:00:15;37.20;;;23.25;;
58302;SDS011;44109;52.398;7.024;2024-02-15T03:02:46;35.97;;;24.58;;
58302;SDS011;44109;52.398;7.024;2024-02-15T03:05:14;49.85;;;32.05;;
58302;SDS011;44109;52.398;7.024;2024-02-15T03:07:41;43.65;;;28.88;;
58302;SDS011;44109;52.398;7.024;2024-02-15T03:10:10;39.55;;;23.83;;
58302;SDS011;44109;52.398;7.024;2024-02-15T03:12:39;33.92;;;24.13;;
58302;SDS011;44109;52.398;7.024;2024-02-15T03:15:13;50.30;;;29.13;;
58302;SDS011;44109;52.398;7.024;2024-02-15T03:17:43;33.00;;;23.25;;
58302;SDS011;44109;52.398;7.024;2024-02-15T03:20:14;28.85;;;21.08;;
58302;SDS011;44109;52.398;7.024;2024-02-15T03:22:50;41.97;;;28.88;;
58302;SDS011;44109;52.398;7.024;2024-02-15T03:25:19;33.08;;;22.42;;
58302;SDS011;44109;52.398;7.024;2024-02-15T03:27:49;42.10;;;27.05;;
58302;SDS011;44109;52.398;7.024;2024-02-15T03:30:18;48.75;;;30.02;;
58302;SDS011;44109;52.398;7.024;2024-02-15T03:32:48;46.60;;;30.17;;
58302;SDS011;44109;52.398;7.024;2024-02-15T03:35:17;27.85;;;20.38;;
58302;SDS011;44109;52.398;7.024;2024-02-15T03:37:46;31.25;;;22.88;;
58302;SDS011;44109;52.398;7.024;2024-02-15T03:40:16;38.35;;;26.63;;
58302;SDS011;44109;52.398;7.024;2024-02-15T03:42:44;44.55;;;28.00;;
58302;SDS011;44109;52.398;7.024;2024-02-15T03:45:12;47.00;;;29.48;;
58302;SDS011;44109;52.398;7.024;2024-02-15T03:47:40;37.03;;;25.02;;
58302;SDS011;44109;52.398;7.024;2024-02-15T03:50:09;43.28;;;28.20;;
58302;SDS011;44109;52.398;7.024;2024-02-15T03:52:38;42.53;;;27.50;;
58302;SDS011;44109;52.398;7.024;2024-02-15T03:55:07;54.60;;;32.83;;
58302;SDS011;44109;52.398;7.024;2024-02-15T03:57:35;55.85;;;34.42;;
58302;SDS011;44109;52.398;7.024;2024-02-15T04:00:06;46.00;;;26.90;;
58302;SDS011;44109;52.398;7.024;2024-02-15T04:02:37;36.50;;;26.85;;
58302;SDS011;44109;52.398;7.024;2024-02-15T04:05:06;37.80;;;25.60;;
58302;SDS011;44109;52.398;7.024;2024-02-15T04:07:36;30.65;;;21.50;;
58302;SDS011;44109;52.398;7.024;2024-02-15T04:10:04;37.80;;;27.42;;
58302;SDS011;44109;52.398;7.024;2024-02-15T04:12:34;41.60;;;28.23;;
58302;SDS011;44109;52.398;7.024;2024-02-15T04:15:15;33.70;;;25.05;;
58302;SDS011;44109;52.398;7.024;2024-02-15T04:17:44;36.05;;;24.38;;
58302;SDS011;44109;52.398;7.024;2024-02-15T04:20:12;34.67;;;23.13;;
58302;SDS011;44109;52.398;7.024;2024-02-15T04:22:43;35.33;;;23.42;;
58302;SDS011;44109;52.398;7.024;2024-02-15T04:25:13;23.15;;;17.90;;
58302;SDS011;44109;52.398;7.024;2024-02-15T04:27:42;30.38;;;19.83;;
58302;SDS011;44109;52.398;7.024;2024-02-15T04:30:12;31.83;;;22.80;;
58302;SDS011;44109;52.398;7.024;2024-02-15T04:32:41;31.15;;;21.05;;
58302;SDS011;44109;52.398;7.024;2024-02-15T04:35:08;34.80;;;21.52;;
58302;SDS011;44109;52.398;7.024;2024-02-15T04:37:37;23.42;;;18.88;;
58302;SDS011;44109;52.398;7.024;2024-02-15T04:40:08;39.03;;;25.15;;
58302;SDS011;44109;52.398;7.024;2024-02-15T04:42:38;27.58;;;19.40;;
58302;SDS011;44109;52.398;7.024;2024-02-15T04:45:08;28.52;;;20.42;;
58302;SDS011;44109;52.398;7.024;2024-02-15T04:47:39;22.38;;;17.02;;
58302;SDS011;44109;52.398;7.024;2024-02-15T04:50:07;28.15;;;18.48;;
58302;SDS011;44109;52.398;7.024;2024-02-15T04:52:36;20.55;;;15.93;;
58302;SDS011;44109;52.398;7.024;2024-02-15T04:55:04;26.17;;;15.88;;
58302;SDS011;44109;52.398;7.024;2024-02-15T04:57:33;38.53;;;23.45;;
58302;SDS011;44109;52.398;7.024;2024-02-15T05:00:03;33.55;;;19.45;;
58302;SDS011;44109;52.398;7.024;2024-02-15T05:02:37;36.65;;;21.77;;
58302;SDS011;44109;52.398;7.024;2024-02-15T05:05:06;52.33;;;27.92;;
58302;SDS011;44109;52.398;7.024;2024-02-15T05:07:34;37.67;;;23.58;;
58302;SDS011;44109;52.398;7.024;2024-02-15T05:10:03;43.78;;;23.60;;
58302;SDS011;44109;52.398;7.024;2024-02-15T05:12:33;45.22;;;27.58;;
58302;SDS011;44109;52.398;7.024;2024-02-15T05:15:01;39.97;;;23.35;;
58302;SDS011;44109;52.398;7.024;2024-02-15T05:17:36;34.95;;;21.67;;
58302;SDS011;44109;52.398;7.024;2024-02-15T05:20:07;35.15;;;20.88;;
58302;SDS011;44109;52.398;7.024;2024-02-15T05:22:39;41.33;;;25.35;;
58302;SDS011;44109;52.398;7.024;2024-02-15T05:25:09;40.15;;;24.15;;
58302;SDS011;44109;52.398;7.024;2024-02-15T05:27:39;36.28;;;21.90;;
58302;SDS011;44109;52.398;7.024;2024-02-15T05:30:09;29.30;;;18.20;;
58302;SDS011;44109;52.398;7.024;2024-02-15T05:32:38;31.90;;;20.85;;
58302;SDS011;44109;52.398;7.024;2024-02-15T05:35:09;43.08;;;24.05;;
58302;SDS011;44109;52.398;7.024;2024-02-15T05:37:38;34.80;;;21.65;;
58302;SDS011;44109;52.398;7.024;2024-02-15T05:40:06;26.35;;;17.08;;
58302;SDS011;44109;52.398;7.024;2024-02-15T05:42:43;18.08;;;13.57;;
58302;SDS011;44109;52.398;7.024;2024-02-15T05:45:27;19.33;;;11.88;;
58302;SDS011;44109;52.398;7.024;2024-02-15T05:47:58;15.50;;;11.82;;
58302;SDS011;44109;52.398;7.024;2024-02-15T05:50:26;17.05;;;12.48;;
58302;SDS011;44109;52.398;7.024;2024-02-15T05:52:55;20.75;;;11.38;;
58302;SDS011;44109;52.398;7.024;2024-02-15T05:55:24;15.35;;;10.27;;
58302;SDS011;44109;52.398;7.024;2024-02-15T05:57:56;16.30;;;10.93;;
58302;SDS011;44109;52.398;7.024;2024-02-15T06:00:24;18.77;;;11.38;;
58302;SDS011;44109;52.398;7.024;2024-02-15T06:02:51;9.40;;;7.85;;
58302;SDS011;44109;52.398;7.024;2024-02-15T06:05:20;21.73;;;12.75;;
58302;SDS011;44109;52.398;7.024;2024-02-15T06:07:47;15.65;;;9.90;;
58302;SDS011;44109;52.398;7.024;2024-02-15T06:10:15;19.40;;;12.40;;
58302;SDS011;44109;52.398;7.024;2024-02-15T06:12:43;14.40;;;9.68;;
58302;SDS011;44109;52.398;7.024;2024-02-15T06:15:12;20.73;;;12.57;;
58302;SDS011;44109;52.398;7.024;2024-02-15T06:17:41;13.38;;;9.13;;
58302;SDS011;44109;52.398;7.024;2024-02-15T06:20:11;19.30;;;10.55;;
58302;SDS011;44109;52.398;7.024;2024-02-15T06:22:43;14.63;;;9.48;;
58302;SDS011;44109;52.398;7.024;2024-02-15T06:25:11;23.45;;;12.20;;
58302;SDS011;44109;52.398;7.024;2024-02-15T06:27:39;22.02;;;12.48;;
58302;SDS011;44109;52.398;7.024;2024-02-15T06:30:08;14.63;;;9.35;;
58302;SDS011;44109;52.398;7.024;2024-02-15T06:32:56;18.70;;;11.40;;
58302;SDS011;44109;52.398;7.024;2024-02-15T06:35:42;14.95;;;7.35;;
58302;SDS011;44109;52.398;7.024;2024-02-15T06:38:27;20.58;;;12.30;;
58302;SDS011;44109;52.398;7.024;2024-02-15T06:41:13;13.02;;;7.63;;
58302;SDS011;44109;52.398;7.024;2024-02-15T06:43:40;18.92;;;10.00;;
58302;SDS011;44109;52.398;7.024;2024-02-15T06:46:09;26.98;;;12.32;;
58302;SDS011;44109;52.398;7.024;2024-02-15T06:48:38;12.27;;;6.90;;
58302;SDS011;44109;52.398;7.024;2024-02-15T06:51:11;12.18;;;7.13;;
58302;SDS011;44109;52.398;7.024;2024-02-15T06:53:40;13.73;;;8.40;;
58302;SDS011;44109;52.398;7.024;2024-02-15T06:56:08;16.60;;;10.30;;
58302;SDS011;44109;52.398;7.024;2024-02-15T06:58:37;14.73;;;9.02;;
58302;SDS011;44109;52.398;7.024;2024-02-15T07:01:06;14.82;;;9.05;;
58302;SDS011;44109;52.398;7.024;2024-02-15T07:03:34;13.57;;;8.77;;
58302;SDS011;44109;52.398;7.024;2024-02-15T07:06:03;13.48;;;5.80;;
58302;SDS011;44109;52.398;7.024;2024-02-15T07:08:31;12.63;;;8.95;;
58302;SDS011;44109;52.398;7.024;2024-02-15T07:10:59;14.07;;;8.60;;
58302;SDS011;44109;52.398;7.024;2024-02-15T07:13:27;15.15;;;9.32;;
58302;SDS011;44109;52.398;7.024;2024-02-15T07:15:55;15.40;;;9.50;;
58302;SDS011;44109;52.398;7.024;2024-02-15T07:18:23;16.58;;;9.65;;
58302;SDS011;44109;52.398;7.024;2024-02-15T07:20:51;11.93;;;7.88;;
58302;SDS011;44109;52.398;7.024;2024-02-15T07:23:21;15.93;;;9.80;;
58302;SDS011;44109;52.398;7.024;2024-02-15T07:25:49;12.45;;;8.30;;
58302;SDS011;44109;52.398;7.024;2024-02-15T07:28:19;15.48;;;8.60;;
58302;SDS011;44109;52.398;7.024;2024-02-15T07:30:47;15.63;;;9.43;;
58302;SDS011;44109;52.398;7.024;2024-02-15T07:33:16;20.02;;;8.93;;
58302;SDS011;44109;52.398;7.024;2024-02-15T07:35:46;20.50;;;10.10;;
58302;SDS011;44109;52.398;7.024;2024-02-15T07:38:16;14.05;;;7.90;;
58302;SDS011;44109;52.398;7.024;2024-02-15T07:40:45;13.27;;;8.40;;
58302;SDS011;44109;52.398;7.024;2024-02-15T07:43:13;14.73;;;9.73;;
58302;SDS011;44109;52.398;7.024;2024-02-15T07:45:41;15.55;;;8.65;;
58302;SDS011;44109;52.398;7.024;2024-02-15T07:48:09;9.85;;;6.68;;
58302;SDS011;44109;52.398;7.024;2024-02-15T07:50:37;9.85;;;6.13;;
58302;SDS011;44109;52.398;7.024;2024-02-15T07:53:08;9.73;;;7.88;;
58302;SDS011;44109;52.398;7.024;2024-02-15T07:55:36;11.60;;;6.70;;
58302;SDS011;44109;52.398;7.024;2024-02-15T07:58:05;13.50;;;8.00;;
58302;SDS011;44109;52.398;7.024;2024-02-15T08:00:32;14.23;;;8.10;;
58302;SDS011;44109;52.398;7.024;2024-02-15T08:03:01;9.65;;;6.20;;
58302;SDS011;44109;52.398;7.024;2024-02-15T08:05:29;7.03;;;5.28;;
58302;SDS011;44109;52.398;7.024;2024-02-15T08:07:56;14.50;;;7.40;;
58302;SDS011;44109;52.398;7.024;2024-02-15T08:10:24;11.77;;;6.15;;
58302;SDS011;44109;52.398;7.024;2024-02-15T08:12:54;9.75;;;5.55;;
58302;SDS011;44109;52.398;7.024;2024-02-15T08:15:25;11.45;;;6.95;;
58302;SDS011;44109;52.398;7.024;2024-02-15T08:17:54;9.90;;;6.60;;
58302;SDS011;44109;52.398;7.024;2024-02-15T08:20:22;12.68;;;8.25;;
58302;SDS011;44109;52.398;7.024;2024-02-15T08:22:57;13.57;;;8.82;;
58302;SDS011;44109;52.398;7.024;2024-02-15T08:25:25;10.18;;;7.53;;
58302;SDS011;44109;52.398;7.024;2024-02-15T08:27:52;16.35;;;8.35;;
58302;SDS011;44109;52.398;7.024;2024-02-15T08:30:20;11.13;;;6.00;;
58302;SDS011;44109;52.398;7.024;2024-02-15T08:32:49;10.95;;;6.00;;
58302;SDS011;44109;52.398;7.024;2024-02-15T08:35:19;11.13;;;6.90;;
58302;SDS011;44109;52.398;7.024;2024-02-15T08:37:47;11.73;;;6.57;;
58302;SDS011;44109;52.398;7.024;2024-02-15T08:40:16;9.45;;;6.50;;
58302;SDS011;44109;52.398;7.024;2024-02-15T08:42:50;11.00;;;5.93;;
58302;SDS011;44109;52.398;7.024;2024-02-15T08:45:18;14.93;;;7.93;;
58302;SDS011;44109;52.398;7.024;2024-02-15T08:47:45;9.23;;;5.95;;
58302;SDS011;44109;52.398;7.024;2024-02-15T08:50:17;10.10;;;6.38;;
58302;SDS011;44109;52.398;7.024;2024-02-15T08:52:44;12.35;;;6.57;;
58302;SDS011;44109;52.398;7.024;2024-02-15T08:55:12;15.40;;;9.05;;
58302;SDS011;44109;52.398;7.024;2024-02-15T08:57:40;12.90;;;7.03;;
58302;SDS011;44109;52.398;7.024;2024-02-15T09:00:10;11.15;;;6.43;;
58302;SDS011;44109;52.398;7.024;2024-02-15T09:02:42;9.60;;;5.40;;
58302;SDS011;44109;52.398;7.024;2024-02-15T09:05:10;12.30;;;6.15;;
58302;SDS011;44109;52.398;7.024;2024-02-15T09:07:41;9.95;;;4.50;;
58302;SDS011;44109;52.398;7.024;2024-02-15T09:10:10;13.38;;;7.22;;
58302;SDS011;44109;52.398;7.024;2024-02-15T09:12:38;14.63;;;7.57;;
58302;SDS011;44109;52.398;7.024;2024-02-15T09:15:08;9.45;;;5.63;;
58302;SDS011;44109;52.398;7.024;2024-02-15T09:17:36;10.75;;;7.20;;
58302;SDS011;44109;52.398;7.024;2024-02-15T09:20:06;13.70;;;6.95;;
58302;SDS011;44109;52.398;7.024;2024-02-15T09:22:41;10.30;;;6.07;;
58302;SDS011;44109;52.398;7.024;2024-02-15T09:25:12;12.75;;;8.70;;
58302;SDS011;44109;52.398;7.024;2024-02-15T09:27:40;9.15;;;6.93;;
58302;SDS011;44109;52.398;7.024;2024-02-15T09:30:09;12.57;;;9.05;;
58302;SDS011;44109;52.398;7.024;2024-02-15T09:32:37;6.50;;;4.18;;
58302;SDS011;44109;52.398;7.024;2024-02-15T09:35:07;6.68;;;3.55;;
58302;SDS011;44109;52.398;7.024;2024-02-15T09:37:38;10.07;;;5.05;;
58302;SDS011;44109;52.398;7.024;2024-02-15T09:40:15;9.15;;;6.20;;
58302;SDS011;44109;52.398;7.024;2024-02-15T09:42:45;9.10;;;5.90;;
58302;SDS011;44109;52.398;7.024;2024-02-15T09:45:14;7.13;;;4.43;;
58302;SDS011;44109;52.398;7.024;2024-02-15T09:47:44;6.47;;;3.88;;
58302;SDS011;44109;52.398;7.024;2024-02-15T09:50:12;9.13;;;6.90;;
58302;SDS011;44109;52.398;7.024;2024-02-15T09:52:45;6.63;;;4.20;;
58302;SDS011;44109;52.398;7.024;2024-02-15T09:55:16;6.80;;;4.18;;
58302;SDS011;44109;52.398;7.024;2024-02-15T09:57:45;6.40;;;4.90;;
58302;SDS011;44109;52.398;7.024;2024-02-15T10:00:14;9.20;;;5.43;;
58302;SDS011;44109;52.398;7.024;2024-02-15T10:02:44;7.20;;;4.93;;
58302;SDS011;44109;52.398;7.024;2024-02-15T10:05:14;7.28;;;4.25;;
58302;SDS011;44109;52.398;7.024;2024-02-15T10:07:45;7.32;;;5.13;;
58302;SDS011;44109;52.398;7.024;2024-02-15T10:10:16;6.50;;;4.68;;
58302;SDS011;44109;52.398;7.024;2024-02-15T10:12:46;7.00;;;3.35;;
58302;SDS011;44109;52.398;7.024;2024-02-15T10:15:26;3.67;;;3.33;;
58302;SDS011;44109;52.398;7.024;2024-02-15T10:17:56;3.58;;;3.15;;
58302;SDS011;44109;52.398;7.024;2024-02-15T10:20:25;4.70;;;3.13;;
58302;SDS011;44109;52.398;7.024;2024-02-15T10:22:56;7.28;;;3.95;;
58302;SDS011;44109;52.398;7.024;2024-02-15T10:25:37;3.88;;;2.95;;
58302;SDS011;44109;52.398;7.024;2024-02-15T10:28:07;5.38;;;3.15;;
58302;SDS011;44109;52.398;7.024;2024-02-15T10:30:36;5.32;;;3.85;;
58302;SDS011;44109;52.398;7.024;2024-02-15T10:33:09;3.47;;;2.28;;
58302;SDS011;44109;52.398;7.024;2024-02-15T10:35:37;5.90;;;2.80;;
58302;SDS011;44109;52.398;7.024;2024-02-15T10:38:06;3.97;;;2.67;;
58302;SDS011;44109;52.398;7.024;2024-02-15T10:40:36;4.72;;;2.85;;
58302;SDS011;44109;52.398;7.024;2024-02-15T10:43:04;3.50;;;2.60;;
58302;SDS011;44109;52.398;7.024;2024-02-15T10:45:34;3.92;;;2.22;;
58302;SDS011;44109;52.398;7.024;2024-02-15T10:48:05;5.60;;;3.08;;
58302;SDS011;44109;52.398;7.024;2024-02-15T10:50:34;3.53;;;1.90;;
58302;SDS011;44109;52.398;7.024;2024-02-15T10:53:04;5.00;;;2.60;;
58302;SDS011;44109;52.398;7.024;2024-02-15T10:55:48;5.57;;;3.13;;
58302;SDS011;44109;52.398;7.024;2024-02-15T10:58:28;6.30;;;3.63;;
58302;SDS011;44109;52.398;7.024;2024-02-15T11:01:02;5.35;;;2.50;;
58302;SDS011;44109;52.398;7.024;2024-02-15T11:03:35;5.03;;;2.80;;
58302;SDS011;44109;52.398;7.024;2024-02-15T11:06:07;6.75;;;3.03;;
58302;SDS011;44109;52.398;7.024;2024-02-15T11:08:39;6.50;;;2.92;;
58302;SDS011;44109;52.398;7.024;2024-02-15T11:11:07;4.25;;;2.53;;
58302;SDS011;44109;52.398;7.024;2024-02-15T11:13:37;6.75;;;2.78;;
58302;SDS011;44109;52.398;7.024;2024-02-15T11:16:08;7.53;;;3.30;;
58302;SDS011;44109;52.398;7.024;2024-02-15T11:18:42;7.03;;;3.72;;
58302;SDS011;44109;52.398;7.024;2024-02-15T11:21:15;6.57;;;3.63;;
58302;SDS011;44109;52.398;7.024;2024-02-15T11:23:46;11.60;;;4.72;;
58302;SDS011;44109;52.398;7.024;2024-02-15T11:32:38;4.95;;;2.63;;
58302;SDS011;44109;52.398;7.024;2024-02-15T11:35:10;10.98;;;4.70;;
58302;SDS011;44109;52.398;7.024;2024-02-15T11:37:55;10.18;;;5.00;;
58302;SDS011;44109;52.398;7.024;2024-02-15T11:43:45;7.80;;;4.32;;
58302;SDS011;44109;52.398;7.024;2024-02-15T11:46:22;10.98;;;5.90;;
58302;SDS011;44109;52.398;7.024;2024-02-15T11:48:53;8.32;;;4.70;;
58302;SDS011;44109;52.398;7.024;2024-02-15T11:51:25;10.63;;;4.30;;
58302;SDS011;44109;52.398;7.024;2024-02-15T11:54:00;9.50;;;5.35;;
58302;SDS011;44109;52.398;7.024;2024-02-15T11:56:34;7.15;;;3.85;;
58302;SDS011;44109;52.398;7.024;2024-02-15T11:59:39;11.07;;;7.38;;
58302;SDS011;44109;52.398;7.024;2024-02-15T12:05:24;10.70;;;5.28;;
58302;SDS011;44109;52.398;7.024;2024-02-15T12:08:10;8.40;;;5.47;;
58302;SDS011;44109;52.398;7.024;2024-02-15T12:10:58;11.77;;;5.85;;
58302;SDS011;44109;52.398;7.024;2024-02-15T12:13:45;12.15;;;6.03;;
58302;SDS011;44109;52.398;7.024;2024-02-15T12:16:35;8.75;;;4.60;;
58302;SDS011;44109;52.398;7.024;2024-02-15T12:19:20;9.90;;;4.65;;
58302;SDS011;44109;52.398;7.024;2024-02-15T12:21:49;12.52;;;5.57;;
58302;SDS011;44109;52.398;7.024;2024-02-15T12:24:18;14.38;;;7.13;;
58302;SDS011;44109;52.398;7.024;2024-02-15T12:26:47;12.23;;;5.95;;
58302;SDS011;44109;52.398;7.024;2024-02-15T12:29:17;12.02;;;7.20;;
58302;SDS011;44109;52.398;7.024;2024-02-15T12:31:46;11.73;;;6.30;;
58302;SDS011;44109;52.398;7.024;2024-02-15T12:34:15;9.23;;;5.38;;
58302;SDS011;44109;52.398;7.024;2024-02-15T12:36:49;9.83;;;6.27;;
58302;SDS011;44109;52.398;7.024;2024-02-15T12:39:23;9.05;;;5.72;;
58302;SDS011;44109;52.398;7.024;2024-02-15T12:41:53;13.68;;;6.85;;
58302;SDS011;44109;52.398;7.024;2024-02-15T12:44:22;8.07;;;6.03;;
58302;SDS011;44109;52.398;7.024;2024-02-15T12:46:55;10.93;;;5.93;;
58302;SDS011;44109;52.398;7.024;2024-02-15T12:49:29;10.93;;;6.90;;
58302;SDS011;44109;52.398;7.024;2024-02-15T12:55:07;10.05;;;5.00;;
58302;SDS011;44109;52.398;7.024;2024-02-15T12:57:42;8.27;;;4.53;;
58302;SDS011;44109;52.398;7.024;2024-02-15T13:00:17;8.10;;;4.85;;
58302;SDS011;44109;52.398;7.024;2024-02-15T13:02:47;10.52;;;5.90;;
58302;SDS011;44109;52.398;7.024;2024-02-15T13:05:16;11.13;;;5.30;;
58302;SDS011;44109;52.398;7.024;2024-02-15T13:07:45;11.02;;;5.82;;
58302;SDS011;44109;52.398;7.024;2024-02-15T13:10:13;14.40;;;6.38;;
58302;SDS011;44109;52.398;7.024;2024-02-15T13:12:41;12.75;;;5.53;;
58302;SDS011;44109;52.398;7.024;2024-02-15T13:15:11;11.52;;;5.50;;
58302;SDS011;44109;52.398;7.024;2024-02-15T13:17:44;10.52;;;5.30;;
58302;SDS011;44109;52.398;7.024;2024-02-15T13:20:12;8.10;;;5.90;;
58302;SDS011;44109;52.398;7.024;2024-02-15T13:22:46;9.40;;;5.55;;
58302;SDS011;44109;52.398;7.024;2024-02-15T13:25:17;9.77;;;4.57;;
58302;SDS011;44109;52.398;7.024;2024-02-15T13:27:47;7.75;;;4.30;;
58302;SDS011;44109;52.398;7.024;2024-02-15T13:30:14;8.27;;;3.72;;
58302;SDS011;44109;52.398;7.024;2024-02-15T13:32:48;8.30;;;4.32;;
58302;SDS011;44109;52.398;7.024;2024-02-15T13:35:17;9.05;;;4.65;;
58302;SDS011;44109;52.398;7.024;2024-02-15T13:37:46;10.20;;;4.53;;
58302;SDS011;44109;52.398;7.024;2024-02-15T13:40:14;12.10;;;4.95;;
58302;SDS011;44109;52.398;7.024;2024-02-15T13:42:43;9.90;;;4.38;;
58302;SDS011;44109;52.398;7.024;2024-02-15T13:45:15;7.47;;;3.57;;
58302;SDS011;44109;52.398;7.024;2024-02-15T13:47:47;7.28;;;4.38;;
58302;SDS011;44109;52.398;7.024;2024-02-15T13:50:16;9.73;;;3.90;;
58302;SDS011;44109;52.398;7.024;2024-02-15T13:52:44;5.78;;;3.38;;
58302;SDS011;44109;52.398;7.024;2024-02-15T13:55:14;9.75;;;4.07;;
58302;SDS011;44109;52.398;7.024;2024-02-15T13:57:43;7.18;;;3.30;;
58302;SDS011;44109;52.398;7.024;2024-02-15T14:00:13;6.43;;;3.70;;
58302;SDS011;44109;52.398;7.024;2024-02-15T14:02:57;9.20;;;3.58;;
58302;SDS011;44109;52.398;7.024;2024-02-15T14:05:27;6.32;;;3.20;;
58302;SDS011;44109;52.398;7.024;2024-02-15T14:07:57;7.03;;;3.47;;
58302;SDS011;44109;52.398;7.024;2024-02-15T14:10:29;6.07;;;3.08;;
58302;SDS011;44109;52.398;7.024;2024-02-15T14:13:00;6.82;;;3.35;;
58302;SDS011;44109;52.398;7.024;2024-02-15T14:15:31;7.43;;;3.50;;
58302;SDS011;44109;52.398;7.024;2024-02-15T14:18:04;8.25;;;3.33;;
58302;SDS011;44109;52.398;7.024;2024-02-15T14:20:33;8.63;;;4.22;;
58302;SDS011;44109;52.398;7.024;2024-02-15T14:23:01;5.72;;;2.90;;
58302;SDS011;44109;52.398;7.024;2024-02-15T14:25:32;5.85;;;3.42;;
58302;SDS011;44109;52.398;7.024;2024-02-15T14:28:01;7.70;;;3.85;;
58302;SDS011;44109;52.398;7.024;2024-02-15T14:30:29;4.95;;;2.90;;
58302;SDS011;44109;52.398;7.024;2024-02-15T14:33:16;7.07;;;3.45;;
58302;SDS011;44109;52.398;7.024;2024-02-15T14:35:45;6.82;;;2.80;;
58302;SDS011;44109;52.398;7.024;2024-02-15T14:38:13;6.88;;;4.10;;
58302;SDS011;44109;52.398;7.024;2024-02-15T14:40:43;9.02;;;3.92;;
58302;SDS011;44109;52.398;7.024;2024-02-15T14:43:16;7.03;;;3.40;;
58302;SDS011;44109;52.398;7.024;2024-02-15T14:45:47;8.82;;;3.70;;
58302;SDS011;44109;52.398;7.024;2024-02-15T14:48:21;5.78;;;3.42;;
58302;SDS011;44109;52.398;7.024;2024-02-15T14:50:57;9.93;;;4.15;;
58302;SDS011;44109;52.398;7.024;2024-02-15T14:53:25;7.85;;;3.33;;
58302;SDS011;44109;52.398;7.024;2024-02-15T14:55:53;6.10;;;3.30;;
58302;SDS011;44109;52.398;7.024;2024-02-15T14:58:20;12.77;;;4.20;;
58302;SDS011;44109;52.398;7.024;2024-02-15T15:00:48;5.97;;;3.78;;
58302;SDS011;44109;52.398;7.024;2024-02-15T15:03:17;6.15;;;3.40;;
58302;SDS011;44109;52.398;7.024;2024-02-15T15:05:47;6.18;;;3.13;;
58302;SDS011;44109;52.398;7.024;2024-02-15T15:08:32;8.85;;;3.00;;